LFPVLFOA

Guest
Details From LFPV - Velizy
To LFOA - AVORD
Flight Number -
Tags generated
Created
Modified
Stats Distance 105 nm / 194 km
Max Altitude 13,900 ft / 4,237 m
Waypoints 3
Social Downloads 0
Likes 0
Share VATSIM

Download

Looking for another format? Having issues loading an existing format? Contact us
Advertisement - Login to hide

Notes

Basic altitude profile: - Ascent Rate: 2500ft/min - Ascent Speed: 250kts - Cruise Altitude: 35000ft - Cruise Speed: 420kts - Descent Rate: 1500ft/min - Descent Speed: 250kts Options: - Use NATs: yes - Use PACOTS: yes - Use low airways: yes - Use high airways: yes

Route

LFPV KETEX LFOA

ID Type Via Altitude Latitude Longitude Leg Dist Tot Dist Heading (true) Name
O LFPV APT - 0 ft / 0 m 48.77437˚ 2.20161˚ - 0 nm - Velizy
KETEX FIX - 13,900 ft / 4,237 m 48.13333˚ 2.35972˚ 39 nm 39 nm 171° / 171° -
O LFOA APT - 0 ft / 0 m 47.05574˚ 2.63181˚ 65 nm 104 nm 170° / 170° AVORD

Altitude Profile

Advertisement - Login to hide

LFPV

Details ICAO LFPV
Name Velizy
Region France
Timezone Europe/Paris (UTC+1.0)
Stats Elevation 584 ft / 178 m (AMSL)
Location 48.774366° 2.201605°
Runways 1
Magnetic Variation 0.547° E

METAR

LFPV 160330Z AUTO 30008KT 9999 BKN014 OVC027 04/02 Q1010 TEMPO BKN008

Decode

TAF

TAF TAF LFPV 160200Z 1603/1703 32010KT 9999 BKN015 BKN025 TEMPO 1603/1609 BKN008 BECMG 1611/1613 CAVOK BECMG 1618/1620 OVC010 TEMPO 1620/1702 4000 RA BKN004

Decode

Departure Runways

ID Width Length Bearing (true) Bearing (mag) Surface Threshold Offset Overrun Length
09 148 ft / 45 m 5,932 ft / 1,808 m 88.30° 87.75° Asphalt 0 ft / 0 m 436 ft / 133 m
27 148 ft / 45 m 5,932 ft / 1,808 m 268.31° 267.76° Asphalt 0 ft / 0 m 0 ft / 0 m

LFOA

Details ICAO LFOA
Name AVORD
Region France
Timezone Europe/Paris (UTC+1.0)
Stats Elevation 580 ft / 177 m (AMSL)
Location 47.055737° 2.631807°
Runways 1
Magnetic Variation 0.774° E

METAR

LFOA 160330Z AUTO 29007KT 9999 BKN013 OVC018 03/03 Q1010

Decode

TAF

Not found

Destination Runways

ID Width Length Bearing (true) Bearing (mag) Surface Threshold Offset Overrun Length
06 148 ft / 45 m 11,471 ft / 3,496 m 60.27° 59.50° Asphalt 0 ft / 0 m 1,312 ft / 400 m
24 148 ft / 45 m 11,471 ft / 3,496 m 240.30° 239.53° Asphalt 0 ft / 0 m 1,319 ft / 402 m

Approach Navaids

Runway Type Ident Frequency Range Bearing (true) Bearing (mag) Slope Elevation
06 Localiser AV 110.70 MHz 18 nm / 33 km 60.32° 59.55° - 577 ft / 176 m (AMSL)
06 Glidescope AV 110.70 MHz 10 nm / 19 km 60.29° 59.51° 3.00° 577 ft / 176 m (AMSL)
24 Localiser AV 110.70 MHz 18 nm / 33 km 240.26° 239.49° - 562 ft / 171 m (AMSL)
24 Glidescope AV 110.70 MHz 10 nm / 19 km 240.29° 239.51° 3.00° 633 ft / 193 m (AMSL)